sensor_id;sensor_type;location;lat;lon;timestamp;P1;durP1;ratioP1;P2;durP2;ratioP2
60730;SDS011;46580;52.114;11.674;2022-12-26T00:01:27;6.80;;;3.53;;
60730;SDS011;46580;52.114;11.674;2022-12-26T00:03:54;4.67;;;3.10;;
60730;SDS011;46580;52.114;11.674;2022-12-26T00:06:24;4.57;;;3.30;;
60730;SDS011;46580;52.114;11.674;2022-12-26T00:08:51;3.67;;;2.97;;
60730;SDS011;46580;52.114;11.674;2022-12-26T00:11:23;6.37;;;3.43;;
60730;SDS011;46580;52.114;11.674;2022-12-26T00:13:56;4.10;;;3.30;;
60730;SDS011;46580;52.114;11.674;2022-12-26T00:16:24;4.73;;;3.23;;
60730;SDS011;46580;52.114;11.674;2022-12-26T00:18:50;5.90;;;3.57;;
60730;SDS011;46580;52.114;11.674;2022-12-26T00:21:17;3.97;;;3.30;;
60730;SDS011;46580;52.114;11.674;2022-12-26T00:23:43;3.77;;;2.70;;
60730;SDS011;46580;52.114;11.674;2022-12-26T00:26:13;5.13;;;3.50;;
60730;SDS011;46580;52.114;11.674;2022-12-26T00:28:46;3.50;;;2.67;;
60730;SDS011;46580;52.114;11.674;2022-12-26T00:31:19;3.57;;;3.07;;
60730;SDS011;46580;52.114;11.674;2022-12-26T00:33:46;4.90;;;3.07;;
60730;SDS011;46580;52.114;11.674;2022-12-26T00:36:17;5.13;;;3.03;;
60730;SDS011;46580;52.114;11.674;2022-12-26T00:38:44;4.97;;;3.40;;
60730;SDS011;46580;52.114;11.674;2022-12-26T00:41:13;4.83;;;2.97;;
60730;SDS011;46580;52.114;11.674;2022-12-26T00:43:40;5.73;;;3.83;;
60730;SDS011;46580;52.114;11.674;2022-12-26T00:46:06;5.30;;;3.60;;
60730;SDS011;46580;52.114;11.674;2022-12-26T00:48:32;4.47;;;3.03;;
60730;SDS011;46580;52.114;11.674;2022-12-26T00:50:57;4.60;;;3.47;;
60730;SDS011;46580;52.114;11.674;2022-12-26T00:53:23;5.80;;;3.87;;
60730;SDS011;46580;52.114;11.674;2022-12-26T00:55:51;3.77;;;3.10;;
60730;SDS011;46580;52.114;11.674;2022-12-26T00:58:18;4.70;;;3.40;;
60730;SDS011;46580;52.114;11.674;2022-12-26T01:00:47;6.10;;;3.60;;
60730;SDS011;46580;52.114;11.674;2022-12-26T01:03:13;6.47;;;3.30;;
60730;SDS011;46580;52.114;11.674;2022-12-26T01:05:46;4.93;;;3.30;;
60730;SDS011;46580;52.114;11.674;2022-12-26T01:08:13;5.27;;;3.27;;
60730;SDS011;46580;52.114;11.674;2022-12-26T01:10:40;4.27;;;2.93;;
60730;SDS011;46580;52.114;11.674;2022-12-26T01:13:09;3.93;;;3.07;;
60730;SDS011;46580;52.114;11.674;2022-12-26T01:15:37;4.77;;;3.60;;
60730;SDS011;46580;52.114;11.674;2022-12-26T01:18:05;5.30;;;3.60;;
60730;SDS011;46580;52.114;11.674;2022-12-26T01:20:31;3.63;;;3.07;;
60730;SDS011;46580;52.114;11.674;2022-12-26T01:23:01;6.17;;;3.50;;
60730;SDS011;46580;52.114;11.674;2022-12-26T01:25:29;5.80;;;3.30;;
60730;SDS011;46580;52.114;11.674;2022-12-26T01:28:00;4.53;;;3.37;;
60730;SDS011;46580;52.114;11.674;2022-12-26T01:30:28;5.50;;;3.47;;
60730;SDS011;46580;52.114;11.674;2022-12-26T01:32:55;5.63;;;3.00;;
60730;SDS011;46580;52.114;11.674;2022-12-26T01:35:21;6.27;;;3.80;;
60730;SDS011;46580;52.114;11.674;2022-12-26T01:37:49;6.30;;;3.67;;
60730;SDS011;46580;52.114;11.674;2022-12-26T01:40:20;4.87;;;3.70;;
60730;SDS011;46580;52.114;11.674;2022-12-26T01:42:56;6.70;;;3.87;;
60730;SDS011;46580;52.114;11.674;2022-12-26T01:45:28;6.80;;;3.57;;
60730;SDS011;46580;52.114;11.674;2022-12-26T01:48:11;6.17;;;3.90;;
60730;SDS011;46580;52.114;11.674;2022-12-26T01:50:53;6.13;;;3.57;;
60730;SDS011;46580;52.114;11.674;2022-12-26T01:56:00;5.90;;;3.50;;
60730;SDS011;46580;52.114;11.674;2022-12-26T02:01:34;5.07;;;3.57;;
60730;SDS011;46580;52.114;11.674;2022-12-26T02:04:03;6.50;;;4.10;;
60730;SDS011;46580;52.114;11.674;2022-12-26T02:06:49;5.00;;;3.83;;
60730;SDS011;46580;52.114;11.674;2022-12-26T02:09:19;6.80;;;4.03;;
60730;SDS011;46580;52.114;11.674;2022-12-26T02:11:53;4.87;;;3.73;;
60730;SDS011;46580;52.114;11.674;2022-12-26T02:14:24;5.17;;;3.87;;
60730;SDS011;46580;52.114;11.674;2022-12-26T02:16:49;5.90;;;3.87;;
60730;SDS011;46580;52.114;11.674;2022-12-26T02:19:28;5.70;;;3.73;;
60730;SDS011;46580;52.114;11.674;2022-12-26T02:22:43;9.23;;;3.97;;
60730;SDS011;46580;52.114;11.674;2022-12-26T02:34:06;6.03;;;3.63;;
60730;SDS011;46580;52.114;11.674;2022-12-26T02:42:15;8.77;;;3.93;;
60730;SDS011;46580;52.114;11.674;2022-12-26T02:44:58;4.83;;;3.53;;
60730;SDS011;46580;52.114;11.674;2022-12-26T02:48:05;7.17;;;3.80;;
60730;SDS011;46580;52.114;11.674;2022-12-26T02:54:27;5.50;;;3.27;;
60730;SDS011;46580;52.114;11.674;2022-12-26T02:57:46;8.00;;;3.90;;
60730;SDS011;46580;52.114;11.674;2022-12-26T03:00:34;4.30;;;3.43;;
60730;SDS011;46580;52.114;11.674;2022-12-26T03:03:49;5.53;;;3.27;;
60730;SDS011;46580;52.114;11.674;2022-12-26T03:06:38;5.43;;;3.93;;
60730;SDS011;46580;52.114;11.674;2022-12-26T03:09:28;5.70;;;3.57;;
60730;SDS011;46580;52.114;11.674;2022-12-26T03:15:12;4.93;;;3.53;;
60730;SDS011;46580;52.114;11.674;2022-12-26T03:17:49;6.83;;;3.53;;
60730;SDS011;46580;52.114;11.674;2022-12-26T03:20:33;5.43;;;3.90;;
60730;SDS011;46580;52.114;11.674;2022-12-26T03:23:07;5.60;;;3.20;;
60730;SDS011;46580;52.114;11.674;2022-12-26T03:25:49;9.23;;;3.70;;
60730;SDS011;46580;52.114;11.674;2022-12-26T03:28:42;8.57;;;4.20;;
60730;SDS011;46580;52.114;11.674;2022-12-26T03:31:10;6.27;;;3.43;;
60730;SDS011;46580;52.114;11.674;2022-12-26T03:33:40;5.87;;;3.23;;
60730;SDS011;46580;52.114;11.674;2022-12-26T03:36:42;4.57;;;3.50;;
60730;SDS011;46580;52.114;11.674;2022-12-26T03:52:16;6.00;;;3.40;;
60730;SDS011;46580;52.114;11.674;2022-12-26T03:58:18;6.43;;;3.30;;
60730;SDS011;46580;52.114;11.674;2022-12-26T04:01:14;8.80;;;3.33;;
60730;SDS011;46580;52.114;11.674;2022-12-26T04:04:04;4.47;;;2.90;;
60730;SDS011;46580;52.114;11.674;2022-12-26T04:10:05;3.10;;;2.10;;
60730;SDS011;46580;52.114;11.674;2022-12-26T04:12:59;3.70;;;2.07;;
60730;SDS011;46580;52.114;11.674;2022-12-26T04:16:00;4.43;;;2.37;;
60730;SDS011;46580;52.114;11.674;2022-12-26T04:19:00;4.87;;;3.40;;
60730;SDS011;46580;52.114;11.674;2022-12-26T04:22:06;2.70;;;1.77;;
60730;SDS011;46580;52.114;11.674;2022-12-26T04:27:57;3.20;;;1.70;;
60730;SDS011;46580;52.114;11.674;2022-12-26T04:30:51;4.63;;;1.50;;
60730;SDS011;46580;52.114;11.674;2022-12-26T04:33:52;2.00;;;1.20;;
60730;SDS011;46580;52.114;11.674;2022-12-26T04:40:04;1.37;;;1.13;;
60730;SDS011;46580;52.114;11.674;2022-12-26T04:42:53;1.80;;;1.30;;
60730;SDS011;46580;52.114;11.674;2022-12-26T04:45:41;1.60;;;1.20;;
60730;SDS011;46580;52.114;11.674;2022-12-26T04:48:12;2.90;;;1.10;;
60730;SDS011;46580;52.114;11.674;2022-12-26T04:51:08;1.63;;;1.33;;
60730;SDS011;46580;52.114;11.674;2022-12-26T04:53:34;1.97;;;1.60;;
60730;SDS011;46580;52.114;11.674;2022-12-26T04:56:00;1.90;;;1.27;;
60730;SDS011;46580;52.114;11.674;2022-12-26T04:58:38;1.93;;;1.37;;
60730;SDS011;46580;52.114;11.674;2022-12-26T05:01:04;2.27;;;1.40;;
60730;SDS011;46580;52.114;11.674;2022-12-26T05:06:58;1.70;;;1.30;;
60730;SDS011;46580;52.114;11.674;2022-12-26T05:09:45;2.00;;;1.70;;
60730;SDS011;46580;52.114;11.674;2022-12-26T05:12:23;2.33;;;1.20;;
60730;SDS011;46580;52.114;11.674;2022-12-26T05:14:57;1.43;;;1.03;;
60730;SDS011;46580;52.114;11.674;2022-12-26T05:17:30;3.20;;;1.23;;
60730;SDS011;46580;52.114;11.674;2022-12-26T05:20:17;1.40;;;1.00;;
60730;SDS011;46580;52.114;11.674;2022-12-26T05:23:03;1.70;;;0.80;;
60730;SDS011;46580;52.114;11.674;2022-12-26T05:25:57;1.83;;;1.07;;
60730;SDS011;46580;52.114;11.674;2022-12-26T05:28:56;2.33;;;1.00;;
60730;SDS011;46580;52.114;11.674;2022-12-26T05:31:27;1.33;;;0.90;;
60730;SDS011;46580;52.114;11.674;2022-12-26T05:33:52;1.40;;;1.10;;
60730;SDS011;46580;52.114;11.674;2022-12-26T05:36:53;1.07;;;0.80;;
60730;SDS011;46580;52.114;11.674;2022-12-26T05:39:23;1.97;;;1.27;;
60730;SDS011;46580;52.114;11.674;2022-12-26T05:41:50;1.03;;;0.93;;
60730;SDS011;46580;52.114;11.674;2022-12-26T05:44:16;1.73;;;0.93;;
60730;SDS011;46580;52.114;11.674;2022-12-26T05:46:42;1.90;;;1.07;;
60730;SDS011;46580;52.114;11.674;2022-12-26T05:49:07;1.93;;;1.13;;
60730;SDS011;46580;52.114;11.674;2022-12-26T05:51:36;3.10;;;1.20;;
60730;SDS011;46580;52.114;11.674;2022-12-26T05:54:20;1.20;;;1.00;;
60730;SDS011;46580;52.114;11.674;2022-12-26T05:56:48;1.90;;;0.83;;
60730;SDS011;46580;52.114;11.674;2022-12-26T05:59:16;1.57;;;0.90;;
60730;SDS011;46580;52.114;11.674;2022-12-26T06:01:42;2.50;;;0.90;;
60730;SDS011;46580;52.114;11.674;2022-12-26T06:04:08;1.43;;;0.90;;
60730;SDS011;46580;52.114;11.674;2022-12-26T06:06:34;1.40;;;1.00;;
60730;SDS011;46580;52.114;11.674;2022-12-26T06:09:02;0.90;;;0.60;;
60730;SDS011;46580;52.114;11.674;2022-12-26T06:11:31;1.10;;;0.90;;
60730;SDS011;46580;52.114;11.674;2022-12-26T06:13:56;1.47;;;1.00;;
60730;SDS011;46580;52.114;11.674;2022-12-26T06:16:26;1.37;;;0.80;;
60730;SDS011;46580;52.114;11.674;2022-12-26T06:18:55;0.83;;;0.70;;
60730;SDS011;46580;52.114;11.674;2022-12-26T06:21:21;1.37;;;0.90;;
60730;SDS011;46580;52.114;11.674;2022-12-26T06:23:59;1.03;;;0.90;;
60730;SDS011;46580;52.114;11.674;2022-12-26T06:26:25;0.53;;;0.50;;
60730;SDS011;46580;52.114;11.674;2022-12-26T06:29:00;2.70;;;0.70;;
60730;SDS011;46580;52.114;11.674;2022-12-26T06:31:28;1.27;;;0.70;;
60730;SDS011;46580;52.114;11.674;2022-12-26T06:33:56;0.63;;;0.60;;
60730;SDS011;46580;52.114;11.674;2022-12-26T06:36:25;0.67;;;0.60;;
60730;SDS011;46580;52.114;11.674;2022-12-26T06:38:54;0.70;;;0.63;;
60730;SDS011;46580;52.114;11.674;2022-12-26T06:41:32;1.40;;;0.60;;
60730;SDS011;46580;52.114;11.674;2022-12-26T06:43:57;1.03;;;0.50;;
60730;SDS011;46580;52.114;11.674;2022-12-26T06:46:26;0.67;;;0.53;;
60730;SDS011;46580;52.114;11.674;2022-12-26T06:48:54;2.27;;;0.67;;
60730;SDS011;46580;52.114;11.674;2022-12-26T06:51:24;0.80;;;0.60;;
60730;SDS011;46580;52.114;11.674;2022-12-26T06:53:53;1.07;;;0.77;;
60730;SDS011;46580;52.114;11.674;2022-12-26T06:56:22;0.93;;;0.70;;
60730;SDS011;46580;52.114;11.674;2022-12-26T06:58:53;0.60;;;0.60;;
60730;SDS011;46580;52.114;11.674;2022-12-26T07:01:23;0.63;;;0.60;;
60730;SDS011;46580;52.114;11.674;2022-12-26T07:03:50;1.00;;;0.80;;
60730;SDS011;46580;52.114;11.674;2022-12-26T07:06:20;1.30;;;0.80;;
60730;SDS011;46580;52.114;11.674;2022-12-26T07:08:46;3.33;;;0.90;;
60730;SDS011;46580;52.114;11.674;2022-12-26T07:11:19;1.30;;;0.90;;
60730;SDS011;46580;52.114;11.674;2022-12-26T07:13:47;1.43;;;1.13;;
60730;SDS011;46580;52.114;11.674;2022-12-26T07:16:12;1.90;;;1.27;;
60730;SDS011;46580;52.114;11.674;2022-12-26T07:18:38;2.77;;;1.03;;
60730;SDS011;46580;52.114;11.674;2022-12-26T07:21:08;1.60;;;1.20;;
60730;SDS011;46580;52.114;11.674;2022-12-26T07:23:35;4.07;;;1.00;;
60730;SDS011;46580;52.114;11.674;2022-12-26T07:26:01;3.87;;;1.10;;
60730;SDS011;46580;52.114;11.674;2022-12-26T07:28:27;3.77;;;1.80;;
60730;SDS011;46580;52.114;11.674;2022-12-26T07:31:02;4.77;;;1.80;;
60730;SDS011;46580;52.114;11.674;2022-12-26T07:33:28;3.70;;;1.60;;
60730;SDS011;46580;52.114;11.674;2022-12-26T07:35:58;3.63;;;1.40;;
60730;SDS011;46580;52.114;11.674;2022-12-26T07:38:28;2.10;;;1.47;;
60730;SDS011;46580;52.114;11.674;2022-12-26T07:40:57;1.67;;;1.23;;
60730;SDS011;46580;52.114;11.674;2022-12-26T07:43:49;2.27;;;1.43;;
60730;SDS011;46580;52.114;11.674;2022-12-26T07:46:14;1.30;;;1.10;;
60730;SDS011;46580;52.114;11.674;2022-12-26T07:48:42;1.63;;;1.20;;
60730;SDS011;46580;52.114;11.674;2022-12-26T07:51:08;1.13;;;0.83;;
60730;SDS011;46580;52.114;11.674;2022-12-26T07:53:35;1.37;;;1.00;;
60730;SDS011;46580;52.114;11.674;2022-12-26T07:56:01;1.37;;;1.00;;
60730;SDS011;46580;52.114;11.674;2022-12-26T07:58:27;1.23;;;0.77;;
60730;SDS011;46580;52.114;11.674;2022-12-26T08:00:52;0.70;;;0.60;;
60730;SDS011;46580;52.114;11.674;2022-12-26T08:03:17;1.70;;;0.73;;
60730;SDS011;46580;52.114;11.674;2022-12-26T08:05:46;1.03;;;0.67;;
60730;SDS011;46580;52.114;11.674;2022-12-26T08:08:13;0.40;;;0.40;;
60730;SDS011;46580;52.114;11.674;2022-12-26T08:10:41;1.20;;;1.10;;
60730;SDS011;46580;52.114;11.674;2022-12-26T08:13:07;1.27;;;0.77;;
60730;SDS011;46580;52.114;11.674;2022-12-26T08:15:33;0.90;;;0.80;;
60730;SDS011;46580;52.114;11.674;2022-12-26T08:18:01;1.47;;;0.90;;
60730;SDS011;46580;52.114;11.674;2022-12-26T08:20:26;1.10;;;1.00;;
60730;SDS011;46580;52.114;11.674;2022-12-26T08:22:52;1.50;;;0.90;;
60730;SDS011;46580;52.114;11.674;2022-12-26T08:25:17;0.93;;;0.57;;
60730;SDS011;46580;52.114;11.674;2022-12-26T08:27:45;1.40;;;1.00;;
60730;SDS011;46580;52.114;11.674;2022-12-26T08:30:11;2.00;;;1.10;;
60730;SDS011;46580;52.114;11.674;2022-12-26T08:32:36;3.63;;;1.63;;
60730;SDS011;46580;52.114;11.674;2022-12-26T08:35:02;1.13;;;0.80;;
60730;SDS011;46580;52.114;11.674;2022-12-26T08:37:27;1.90;;;0.93;;
60730;SDS011;46580;52.114;11.674;2022-12-26T08:39:53;6.70;;;3.03;;
60730;SDS011;46580;52.114;11.674;2022-12-26T08:42:19;16.93;;;10.17;;
60730;SDS011;46580;52.114;11.674;2022-12-26T08:44:45;8.27;;;4.47;;
60730;SDS011;46580;52.114;11.674;2022-12-26T08:47:12;12.67;;;5.63;;
60730;SDS011;46580;52.114;11.674;2022-12-26T08:49:37;17.77;;;9.20;;
60730;SDS011;46580;52.114;11.674;2022-12-26T08:52:03;12.27;;;6.53;;
60730;SDS011;46580;52.114;11.674;2022-12-26T08:54:29;19.23;;;9.13;;
60730;SDS011;46580;52.114;11.674;2022-12-26T08:56:54;4.93;;;2.60;;
60730;SDS011;46580;52.114;11.674;2022-12-26T08:59:19;8.20;;;4.20;;
60730;SDS011;46580;52.114;11.674;2022-12-26T09:01:45;2.10;;;1.37;;
60730;SDS011;46580;52.114;11.674;2022-12-26T09:04:10;7.50;;;3.57;;
60730;SDS011;46580;52.114;11.674;2022-12-26T09:06:37;2.43;;;1.43;;
60730;SDS011;46580;52.114;11.674;2022-12-26T09:09:06;2.60;;;1.30;;
60730;SDS011;46580;52.114;11.674;2022-12-26T09:11:35;1.60;;;1.07;;
60730;SDS011;46580;52.114;11.674;2022-12-26T09:14:01;1.27;;;0.83;;
60730;SDS011;46580;52.114;11.674;2022-12-26T09:16:29;2.00;;;1.10;;
60730;SDS011;46580;52.114;11.674;2022-12-26T09:18:58;2.33;;;0.90;;
60730;SDS011;46580;52.114;11.674;2022-12-26T09:21:25;1.37;;;0.90;;
60730;SDS011;46580;52.114;11.674;2022-12-26T09:24:01;3.30;;;1.00;;
60730;SDS011;46580;52.114;11.674;2022-12-26T09:26:31;1.40;;;1.10;;
60730;SDS011;46580;52.114;11.674;2022-12-26T09:28:57;1.67;;;0.97;;
60730;SDS011;46580;52.114;11.674;2022-12-26T09:31:24;2.33;;;1.33;;
60730;SDS011;46580;52.114;11.674;2022-12-26T09:33:54;3.13;;;1.10;;
60730;SDS011;46580;52.114;11.674;2022-12-26T09:36:24;3.13;;;1.50;;
60730;SDS011;46580;52.114;11.674;2022-12-26T09:38:56;1.80;;;1.40;;
60730;SDS011;46580;52.114;11.674;2022-12-26T09:44:43;2.47;;;1.47;;
60730;SDS011;46580;52.114;11.674;2022-12-26T09:47:28;2.60;;;1.80;;
60730;SDS011;46580;52.114;11.674;2022-12-26T09:52:37;2.37;;;1.93;;
60730;SDS011;46580;52.114;11.674;2022-12-26T09:55:31;1.93;;;1.63;;
60730;SDS011;46580;52.114;11.674;2022-12-26T10:00:44;2.37;;;1.70;;
60730;SDS011;46580;52.114;11.674;2022-12-26T10:03:15;3.20;;;1.70;;
60730;SDS011;46580;52.114;11.674;2022-12-26T10:06:06;2.87;;;1.90;;
60730;SDS011;46580;52.114;11.674;2022-12-26T10:08:52;4.50;;;1.70;;
60730;SDS011;46580;52.114;11.674;2022-12-26T10:11:34;2.93;;;1.70;;
60730;SDS011;46580;52.114;11.674;2022-12-26T10:14:15;2.37;;;1.77;;
60730;SDS011;46580;52.114;11.674;2022-12-26T10:17:07;3.43;;;2.30;;
60730;SDS011;46580;52.114;11.674;2022-12-26T10:22:28;3.07;;;2.40;;
60730;SDS011;46580;52.114;11.674;2022-12-26T10:25:03;3.30;;;2.23;;
60730;SDS011;46580;52.114;11.674;2022-12-26T10:27:46;2.10;;;1.90;;
60730;SDS011;46580;52.114;11.674;2022-12-26T10:30:19;4.43;;;2.07;;
60730;SDS011;46580;52.114;11.674;2022-12-26T10:32:50;2.87;;;2.00;;
60730;SDS011;46580;52.114;11.674;2022-12-26T10:37:58;2.73;;;2.13;;
60730;SDS011;46580;52.114;11.674;2022-12-26T10:40:49;2.43;;;2.20;;
60730;SDS011;46580;52.114;11.674;2022-12-26T10:45:46;3.33;;;2.17;;
60730;SDS011;46580;52.114;11.674;2022-12-26T10:48:19;2.70;;;2.10;;
60730;SDS011;46580;52.114;11.674;2022-12-26T10:50:47;3.23;;;2.60;;
60730;SDS011;46580;52.114;11.674;2022-12-26T10:53:13;3.33;;;2.37;;
60730;SDS011;46580;52.114;11.674;2022-12-26T10:55:40;3.90;;;2.40;;
60730;SDS011;46580;52.114;11.674;2022-12-26T10:58:11;3.93;;;2.70;;
60730;SDS011;46580;52.114;11.674;2022-12-26T11:00:40;3.77;;;2.90;;
60730;SDS011;46580;52.114;11.674;2022-12-26T11:03:10;4.77;;;2.50;;
60730;SDS011;46580;52.114;11.674;2022-12-26T11:05:45;3.70;;;2.87;;
60730;SDS011;46580;52.114;11.674;2022-12-26T11:11:33;3.87;;;3.00;;
60730;SDS011;46580;52.114;11.674;2022-12-26T11:13:53;3.73;;;3.13;;
60730;SDS011;46580;52.114;11.674;2022-12-26T11:16:28;4.50;;;2.73;;
60730;SDS011;46580;52.114;11.674;2022-12-26T11:18:55;5.10;;;3.10;;
60730;SDS011;46580;52.114;11.674;2022-12-26T11:21:22;4.90;;;3.57;;
60730;SDS011;46580;52.114;11.674;2022-12-26T11:23:50;4.67;;;3.63;;
60730;SDS011;46580;52.114;11.674;2022-12-26T11:26:21;4.13;;;3.40;;
60730;SDS011;46580;52.114;11.674;2022-12-26T11:31:36;4.73;;;3.40;;
60730;SDS011;46580;52.114;11.674;2022-12-26T11:34:07;4.90;;;3.70;;
60730;SDS011;46580;52.114;11.674;2022-12-26T11:36:34;7.07;;;3.90;;
60730;SDS011;46580;52.114;11.674;2022-12-26T11:39:23;5.50;;;3.60;;
60730;SDS011;46580;52.114;11.674;2022-12-26T11:41:48;4.60;;;3.57;;
60730;SDS011;46580;52.114;11.674;2022-12-26T11:44:21;5.20;;;3.87;;
60730;SDS011;46580;52.114;11.674;2022-12-26T11:47:00;5.67;;;3.77;;
60730;SDS011;46580;52.114;11.674;2022-12-26T11:49:38;4.30;;;3.60;;
60730;SDS011;46580;52.114;11.674;2022-12-26T12:00:41;5.17;;;3.37;;
60730;SDS011;46580;52.114;11.674;2022-12-26T12:03:13;4.30;;;3.57;;
60730;SDS011;46580;52.114;11.674;2022-12-26T12:08:34;4.87;;;3.53;;
60730;SDS011;46580;52.114;11.674;2022-12-26T12:11:21;4.97;;;2.80;;
60730;SDS011;46580;52.114;11.674;2022-12-26T12:16:44;3.27;;;2.30;;
60730;SDS011;46580;52.114;11.674;2022-12-26T12:22:27;2.63;;;2.10;;
60730;SDS011;46580;52.114;11.674;2022-12-26T12:25:17;2.83;;;2.13;;
60730;SDS011;46580;52.114;11.674;2022-12-26T12:36:11;2.70;;;1.40;;
60730;SDS011;46580;52.114;11.674;2022-12-26T12:51:53;0.73;;;0.70;;
60730;SDS011;46580;52.114;11.674;2022-12-26T13:05:14;1.77;;;1.00;;
60730;SDS011;46580;52.114;11.674;2022-12-26T13:07:44;1.70;;;1.00;;
60730;SDS011;46580;52.114;11.674;2022-12-26T13:10:22;0.93;;;0.87;;
60730;SDS011;46580;52.114;11.674;2022-12-26T13:12:53;1.00;;;0.90;;
60730;SDS011;46580;52.114;11.674;2022-12-26T13:15:22;3.27;;;1.00;;
60730;SDS011;46580;52.114;11.674;2022-12-26T13:18:12;2.93;;;1.03;;
60730;SDS011;46580;52.114;11.674;2022-12-26T13:20:47;1.47;;;0.70;;
60730;SDS011;46580;52.114;11.674;2022-12-26T13:23:19;1.20;;;0.80;;
60730;SDS011;46580;52.114;11.674;2022-12-26T13:26:10;1.03;;;0.70;;
60730;SDS011;46580;52.114;11.674;2022-12-26T13:28:43;1.27;;;0.60;;
60730;SDS011;46580;52.114;11.674;2022-12-26T13:31:14;0.50;;;0.50;;
60730;SDS011;46580;52.114;11.674;2022-12-26T13:33:40;1.37;;;0.70;;
60730;SDS011;46580;52.114;11.674;2022-12-26T13:36:07;1.57;;;0.70;;
60730;SDS011;46580;52.114;11.674;2022-12-26T13:41:20;1.10;;;0.60;;
60730;SDS011;46580;52.114;11.674;2022-12-26T13:44:26;2.10;;;0.90;;
60730;SDS011;46580;52.114;11.674;2022-12-26T13:46:54;2.30;;;0.50;;
60730;SDS011;46580;52.114;11.674;2022-12-26T13:51:55;4.00;;;0.63;;
60730;SDS011;46580;52.114;11.674;2022-12-26T13:54:22;2.13;;;0.50;;
60730;SDS011;46580;52.114;11.674;2022-12-26T13:59:22;1.83;;;0.50;;
60730;SDS011;46580;52.114;11.674;2022-12-26T14:01:57;0.73;;;0.50;;
60730;SDS011;46580;52.114;11.674;2022-12-26T14:04:53;1.80;;;0.57;;
60730;SDS011;46580;52.114;11.674;2022-12-26T14:07:44;0.67;;;0.50;;
60730;SDS011;46580;52.114;11.674;2022-12-26T14:12:42;1.03;;;0.57;;
60730;SDS011;46580;52.114;11.674;2022-12-26T14:20:41;1.97;;;0.53;;
60730;SDS011;46580;52.114;11.674;2022-12-26T14:33:48;0.60;;;0.50;;
60730;SDS011;46580;52.114;11.674;2022-12-26T14:39:27;1.33;;;0.60;;
60730;SDS011;46580;52.114;11.674;2022-12-26T14:44:52;1.93;;;0.63;;
60730;SDS011;46580;52.114;11.674;2022-12-26T14:50:33;3.27;;;0.47;;
60730;SDS011;46580;52.114;11.674;2022-12-26T14:53:44;1.80;;;0.43;;
60730;SDS011;46580;52.114;11.674;2022-12-26T14:55:54;0.77;;;0.30;;
60730;SDS011;46580;52.114;11.674;2022-12-26T14:58:28;0.90;;;0.50;;
60730;SDS011;46580;52.114;11.674;2022-12-26T15:03:37;0.83;;;0.60;;
60730;SDS011;46580;52.114;11.674;2022-12-26T15:11:49;1.53;;;0.60;;
60730;SDS011;46580;52.114;11.674;2022-12-26T15:22:36;1.10;;;0.60;;
60730;SDS011;46580;52.114;11.674;2022-12-26T15:33:32;2.17;;;1.10;;
60730;SDS011;46580;52.114;11.674;2022-12-26T15:36:19;1.73;;;1.00;;
60730;SDS011;46580;52.114;11.674;2022-12-26T15:39:04;2.73;;;1.00;;
60730;SDS011;46580;52.114;11.674;2022-12-26T15:41:38;3.03;;;0.90;;
60730;SDS011;46580;52.114;11.674;2022-12-26T15:50:15;3.63;;;0.80;;
60730;SDS011;46580;52.114;11.674;2022-12-26T16:01:00;3.77;;;1.20;;
60730;SDS011;46580;52.114;11.674;2022-12-26T16:04:00;1.50;;;0.90;;
60730;SDS011;46580;52.114;11.674;2022-12-26T16:16:51;4.97;;;2.20;;
60730;SDS011;46580;52.114;11.674;2022-12-26T16:19:20;3.40;;;1.70;;
60730;SDS011;46580;52.114;11.674;2022-12-26T16:21:51;2.57;;;1.40;;
60730;SDS011;46580;52.114;11.674;2022-12-26T16:24:41;3.37;;;1.60;;
60730;SDS011;46580;52.114;11.674;2022-12-26T16:27:12;4.03;;;1.13;;
60730;SDS011;46580;52.114;11.674;2022-12-26T16:29:45;2.10;;;1.20;;
60730;SDS011;46580;52.114;11.674;2022-12-26T16:32:17;4.87;;;1.93;;
60730;SDS011;46580;52.114;11.674;2022-12-26T16:34:44;4.00;;;1.60;;
60730;SDS011;46580;52.114;11.674;2022-12-26T16:37:17;1.90;;;1.30;;
60730;SDS011;46580;52.114;11.674;2022-12-26T16:40:02;2.53;;;1.30;;
60730;SDS011;46580;52.114;11.674;2022-12-26T16:45:43;2.57;;;2.00;;
60730;SDS011;46580;52.114;11.674;2022-12-26T16:48:12;2.07;;;1.30;;
60730;SDS011;46580;52.114;11.674;2022-12-26T16:50:45;1.50;;;0.90;;
60730;SDS011;46580;52.114;11.674;2022-12-26T16:53:14;3.37;;;1.60;;
60730;SDS011;46580;52.114;11.674;2022-12-26T16:55:54;4.40;;;1.00;;
60730;SDS011;46580;52.114;11.674;2022-12-26T16:58:23;1.70;;;0.80;;
60730;SDS011;46580;52.114;11.674;2022-12-26T17:00:58;1.37;;;0.70;;
60730;SDS011;46580;52.114;11.674;2022-12-26T17:03:29;1.33;;;1.10;;
60730;SDS011;46580;52.114;11.674;2022-12-26T17:08:58;4.73;;;1.67;;
60730;SDS011;46580;52.114;11.674;2022-12-26T17:11:35;2.47;;;1.80;;
60730;SDS011;46580;52.114;11.674;2022-12-26T17:14:03;4.13;;;1.77;;
60730;SDS011;46580;52.114;11.674;2022-12-26T17:16:32;5.57;;;1.90;;
60730;SDS011;46580;52.114;11.674;2022-12-26T17:19:18;4.07;;;1.87;;
60730;SDS011;46580;52.114;11.674;2022-12-26T17:24:35;4.73;;;1.23;;
60730;SDS011;46580;52.114;11.674;2022-12-26T17:27:22;4.10;;;1.50;;
60730;SDS011;46580;52.114;11.674;2022-12-26T17:29:56;1.60;;;1.03;;
60730;SDS011;46580;52.114;11.674;2022-12-26T17:32:31;4.33;;;1.63;;
60730;SDS011;46580;52.114;11.674;2022-12-26T17:35:03;3.60;;;1.87;;
60730;SDS011;46580;52.114;11.674;2022-12-26T17:37:31;8.67;;;1.77;;
60730;SDS011;46580;52.114;11.674;2022-12-26T17:40:17;3.53;;;1.17;;
60730;SDS011;46580;52.114;11.674;2022-12-26T17:42:46;16.60;;;7.30;;
60730;SDS011;46580;52.114;11.674;2022-12-26T17:45:16;9.60;;;3.77;;
60730;SDS011;46580;52.114;11.674;2022-12-26T17:47:45;6.90;;;3.70;;
60730;SDS011;46580;52.114;11.674;2022-12-26T17:50:11;3.33;;;1.00;;
60730;SDS011;46580;52.114;11.674;2022-12-26T17:52:38;2.27;;;0.50;;
60730;SDS011;46580;52.114;11.674;2022-12-26T17:55:04;2.40;;;1.50;;
60730;SDS011;46580;52.114;11.674;2022-12-26T17:57:35;3.10;;;1.60;;
60730;SDS011;46580;52.114;11.674;2022-12-26T18:00:00;4.97;;;2.83;;
60730;SDS011;46580;52.114;11.674;2022-12-26T18:02:26;4.13;;;2.07;;
60730;SDS011;46580;52.114;11.674;2022-12-26T18:04:51;5.13;;;2.33;;
60730;SDS011;46580;52.114;11.674;2022-12-26T18:07:21;3.77;;;1.40;;
60730;SDS011;46580;52.114;11.674;2022-12-26T18:09:51;3.43;;;0.70;;
60730;SDS011;46580;52.114;11.674;2022-12-26T18:12:17;2.93;;;0.60;;
60730;SDS011;46580;52.114;11.674;2022-12-26T18:14:42;4.10;;;0.83;;
60730;SDS011;46580;52.114;11.674;2022-12-26T18:17:11;2.80;;;0.90;;
60730;SDS011;46580;52.114;11.674;2022-12-26T18:19:41;3.40;;;1.10;;
60730;SDS011;46580;52.114;11.674;2022-12-26T18:22:16;4.57;;;1.07;;
60730;SDS011;46580;52.114;11.674;2022-12-26T18:24:43;3.30;;;1.03;;
60730;SDS011;46580;52.114;11.674;2022-12-26T18:27:21;5.40;;;1.10;;
60730;SDS011;46580;52.114;11.674;2022-12-26T18:29:51;5.07;;;0.70;;
60730;SDS011;46580;52.114;11.674;2022-12-26T18:32:53;1.70;;;0.80;;
60730;SDS011;46580;52.114;11.674;2022-12-26T18:35:27;3.03;;;0.87;;
60730;SDS011;46580;52.114;11.674;2022-12-26T18:38:16;5.60;;;1.00;;
60730;SDS011;46580;52.114;11.674;2022-12-26T18:40:47;5.67;;;0.97;;
60730;SDS011;46580;52.114;11.674;2022-12-26T18:43:24;2.40;;;0.80;;
60730;SDS011;46580;52.114;11.674;2022-12-26T18:49:00;3.20;;;0.77;;
60730;SDS011;46580;52.114;11.674;2022-12-26T18:51:26;5.73;;;0.70;;
60730;SDS011;46580;52.114;11.674;2022-12-26T18:53:52;2.67;;;0.50;;
60730;SDS011;46580;52.114;11.674;2022-12-26T18:56:20;2.73;;;0.63;;